Time;durP1;ratioP1;P1;durP2;ratioP2;P2;SDS_P1;SDS_P2;PMS_P1;PMS_P2;Temp;Humidity;BMP_temperature;BMP_pressure;BME280_temperature;BME280_humidity;BME280_pressure;Samples;Min_cycle;Max_cycle;Signal;HPM_P1;HPM_P2
2021/05/07 04:10:23;;;;;;;0.87;0.87;;;7.30;99.90;;;;;;6007466;23;21326;-75
2021/05/07 04:15:35;;;;;;;1.07;1.07;;;7.30;99.90;;;;;;5016139;28;20206;-75
2021/05/07 04:18:02;;;;;;;1.00;1.00;;;7.30;99.90;;;;;;5017036;28;20218;-75
2021/05/07 04:20:29;;;;;;;0.93;0.93;;;7.30;99.90;;;;;;5016466;28;20203;-75
2021/05/07 04:22:56;;;;;;;0.90;0.90;;;7.20;99.90;;;;;;5016397;28;20298;-75
2021/05/07 04:25:23;;;;;;;0.90;0.90;;;7.30;99.90;;;;;;5016524;28;20241;-75
2021/05/07 04:27:50;;;;;;;0.90;0.90;;;7.20;99.90;;;;;;5016449;28;20203;-75
2021/05/07 04:30:18;;;;;;;0.80;0.80;;;7.10;99.90;;;;;;5008037;28;20723;-76
2021/05/07 04:32:45;;;;;;;1.00;1.00;;;7.10;99.90;;;;;;5014049;28;20226;-75
2021/05/07 04:35:12;;;;;;;0.80;0.80;;;7.20;99.90;;;;;;5014101;28;20277;-76
2021/05/07 04:37:42;;;;;;;0.90;0.90;;;7.30;99.90;;;;;;5014056;28;20204;-75
2021/05/07 04:40:10;;;;;;;1.00;1.00;;;7.30;99.90;;;;;;5013624;28;20269;-75
2021/05/07 04:42:38;;;;;;;0.80;0.80;;;7.40;99.90;;;;;;5013551;28;20719;-74
2021/05/07 04:45:06;;;;;;;1.07;1.07;;;7.40;99.90;;;;;;5013552;28;20236;-75
2021/05/07 04:47:33;;;;;;;0.90;0.90;;;7.40;99.90;;;;;;5013615;28;20294;-75
2021/05/07 04:50:00;;;;;;;0.90;0.90;;;7.30;99.90;;;;;;5013472;28;20660;-75
2021/05/07 04:52:27;;;;;;;0.90;0.90;;;7.40;99.90;;;;;;5013492;28;20227;-74
2021/05/07 04:54:54;;;;;;;1.10;1.10;;;7.30;99.90;;;;;;5013465;28;20207;-73
2021/05/07 04:57:21;;;;;;;0.90;0.90;;;7.30;99.90;;;;;;5013718;28;20214;-73
2021/05/07 04:59:48;;;;;;;0.90;0.90;;;7.30;99.90;;;;;;5013809;28;20203;-75
2021/05/07 05:02:15;;;;;;;0.80;0.80;;;;;;;;;;5013326;28;20273;-74
2021/05/07 05:04:43;;;;;;;0.87;0.87;;;7.60;99.90;;;;;;5012609;28;20203;-75
2021/05/07 05:07:10;;;;;;;1.07;1.07;;;7.70;99.90;;;;;;5000351;28;20258;-74
2021/05/07 05:09:37;;;;;;;0.80;0.80;;;7.70;99.90;;;;;;5011220;28;20664;-73
2021/05/07 05:12:05;;;;;;;0.80;0.80;;;7.60;99.90;;;;;;4992709;28;20216;-73
2021/05/07 05:14:32;;;;;;;0.87;0.87;;;7.60;99.90;;;;;;4991926;28;20204;-72
2021/05/07 05:17:00;;;;;;;0.90;0.90;;;7.50;99.90;;;;;;4992726;28;20212;-75
2021/05/07 05:19:27;;;;;;;1.13;1.13;;;7.60;99.90;;;;;;4992455;28;20199;-77
2021/05/07 05:21:54;;;;;;;0.90;0.90;;;7.60;99.90;;;;;;4993018;28;20223;-74
2021/05/07 05:24:20;;;;;;;1.00;1.00;;;7.60;99.90;;;;;;4992253;28;20994;-74
2021/05/07 05:26:47;;;;;;;0.87;0.87;;;7.60;99.90;;;;;;4992439;28;20731;-73
2021/05/07 05:29:15;;;;;;;0.80;0.80;;;7.50;99.90;;;;;;4992070;28;20207;-74
2021/05/07 05:31:42;;;;;;;0.93;0.93;;;7.60;99.90;;;;;;4993324;28;20654;-74
2021/05/07 05:34:10;;;;;;;0.80;0.80;;;7.70;99.90;;;;;;4999180;28;20200;-75
2021/05/07 05:36:37;;;;;;;1.00;1.00;;;7.70;99.90;;;;;;5012009;28;20199;-77
2021/05/07 05:39:05;;;;;;;1.00;1.00;;;7.80;99.90;;;;;;5012708;28;20660;-76
2021/05/07 05:41:31;;;;;;;0.90;0.90;;;7.70;99.90;;;;;;5012710;28;20775;-76
2021/05/07 05:43:58;;;;;;;0.90;0.90;;;7.70;99.90;;;;;;5013699;28;20695;-76
2021/05/07 05:46:32;;;;;;;1.03;1.03;;;7.80;99.90;;;;;;5014631;28;20215;-76
2021/05/07 05:48:59;;;;;;;1.00;1.00;;;7.80;99.90;;;;;;5005340;28;20218;-75
2021/05/07 05:51:31;;;;;;;0.90;0.90;;;7.90;99.90;;;;;;4999269;28;20231;-74
2021/05/07 05:53:57;;;;;;;0.90;0.90;;;8.00;99.90;;;;;;4993711;28;20200;-77
2021/05/07 05:56:24;;;;;;;1.00;1.00;;;7.80;99.90;;;;;;4993988;28;20216;-77
2021/05/07 05:58:54;;;;;;;0.90;0.90;;;8.00;99.90;;;;;;4993421;28;20225;-75
2021/05/07 06:01:21;;;;;;;0.90;0.90;;;8.00;99.90;;;;;;4994354;28;20623;-74
2021/05/07 06:03:48;;;;;;;0.80;0.80;;;8.10;99.90;;;;;;4992592;28;20752;-74
2021/05/07 06:06:15;;;;;;;0.87;0.87;;;8.10;99.90;;;;;;4993328;28;20208;-75
2021/05/07 06:08:44;;;;;;;0.90;0.90;;;8.10;99.90;;;;;;4992924;28;20270;-75
2021/05/07 06:11:11;;;;;;;1.00;1.00;;;8.10;99.90;;;;;;4993761;28;20232;-76
2021/05/07 06:13:38;;;;;;;0.90;0.90;;;8.00;99.90;;;;;;4993081;28;20200;-75
2021/05/07 06:16:05;;;;;;;0.90;0.90;;;7.90;99.90;;;;;;4992616;28;20638;-75
2021/05/07 06:18:32;;;;;;;0.97;0.97;;;7.90;99.90;;;;;;4992609;28;20215;-75
2021/05/07 06:20:59;;;;;;;0.90;0.90;;;8.00;99.90;;;;;;4992625;28;20224;-75
2021/05/07 06:23:26;;;;;;;0.80;0.80;;;8.00;99.90;;;;;;4992848;28;20819;-75
2021/05/07 06:25:54;;;;;;;0.80;0.80;;;8.00;99.90;;;;;;4992682;28;20207;-76
2021/05/07 06:28:21;;;;;;;0.80;0.80;;;7.90;99.90;;;;;;4992526;28;20262;-75
2021/05/07 06:30:47;;;;;;;0.90;0.90;;;8.10;99.90;;;;;;4992904;28;20232;-74
2021/05/07 06:33:14;;;;;;;0.90;0.90;;;8.10;99.90;;;;;;4992585;28;20557;-74
2021/05/07 06:35:41;;;;;;;0.90;0.90;;;8.00;99.90;;;;;;4992617;28;20580;-75
2021/05/07 06:38:09;;;;;;;0.90;0.90;;;7.90;99.90;;;;;;4992291;28;20294;-75
2021/05/07 06:40:36;;;;;;;1.00;1.00;;;7.70;99.90;;;;;;4992828;28;20224;-75
2021/05/07 06:43:04;;;;;;;1.00;1.00;;;7.50;99.90;;;;;;4994933;28;20203;-75
2021/05/07 06:45:31;;;;;;;1.00;1.00;;;7.70;99.90;;;;;;5009562;28;20578;-75
2021/05/07 06:47:58;;;;;;;0.90;0.90;;;7.60;99.90;;;;;;5012411;28;20261;-75
2021/05/07 06:50:25;;;;;;;0.90;0.90;;;7.90;99.90;;;;;;5012850;28;20225;-76
2021/05/07 06:52:52;;;;;;;1.10;1.10;;;7.60;99.90;;;;;;5012599;28;20203;-75
2021/05/07 06:55:22;;;;;;;1.07;1.07;;;7.80;99.90;;;;;;5013771;28;20219;-74
2021/05/07 06:57:50;;;;;;;0.90;0.90;;;;;;;;;;5012526;28;20207;-75
2021/05/07 07:00:19;;;;;;;0.90;0.90;;;7.90;99.90;;;;;;5012443;28;20203;-75
2021/05/07 07:02:46;;;;;;;1.00;1.00;;;8.00;99.90;;;;;;5011891;28;20210;-74
2021/05/07 07:05:14;;;;;;;0.80;0.80;;;8.10;99.90;;;;;;5011908;28;20568;-76
2021/05/07 07:07:41;;;;;;;0.90;0.90;;;8.30;99.90;;;;;;5008154;28;20611;-74
2021/05/07 07:10:19;;;;;;;0.80;0.80;;;8.30;99.90;;;;;;5000171;28;20200;-72
2021/05/07 07:12:46;;;;;;;0.90;0.90;;;8.20;99.90;;;;;;4997362;28;20199;-73
2021/05/07 07:15:14;;;;;;;1.00;1.00;;;8.10;99.90;;;;;;5001908;28;20209;-74
2021/05/07 07:17:42;;;;;;;0.83;0.83;;;8.00;99.90;;;;;;5000813;28;20196;-73
2021/05/07 07:20:10;;;;;;;0.80;0.80;;;8.20;99.90;;;;;;5003377;28;20696;-78
2021/05/07 07:22:38;;;;;;;0.80;0.80;;;8.20;99.90;;;;;;5006447;28;20592;-76
2021/05/07 07:25:06;;;;;;;0.80;0.80;;;8.30;99.90;;;;;;5004732;28;20196;-75
2021/05/07 07:27:33;;;;;;;1.07;1.07;;;8.20;99.90;;;;;;5005909;28;20219;-75
2021/05/07 07:30:00;;;;;;;0.97;0.97;;;8.10;99.90;;;;;;5008701;28;20195;-75
2021/05/07 07:32:27;;;;;;;0.80;0.80;;;8.20;99.90;;;;;;5000817;28;20219;-77
2021/05/07 07:35:01;;;;;;;0.80;0.80;;;8.40;99.90;;;;;;5008977;28;20192;-77
2021/05/07 07:37:28;;;;;;;1.00;1.00;;;8.60;99.90;;;;;;5016157;28;20831;-76
2021/05/07 07:39:55;;;;;;;1.00;1.00;;;8.60;99.90;;;;;;5015149;28;20204;-76
2021/05/07 07:42:22;;;;;;;0.90;0.90;;;8.70;99.90;;;;;;5008879;28;20227;-77
2021/05/07 07:44:50;;;;;;;0.97;0.97;;;8.80;99.90;;;;;;5005881;28;20199;-76
2021/05/07 07:47:17;;;;;;;0.80;0.80;;;8.80;99.90;;;;;;4995358;28;20290;-76
2021/05/07 07:49:45;;;;;;;0.90;0.90;;;8.90;99.90;;;;;;5007183;28;20231;-77
2021/05/07 07:52:15;;;;;;;0.90;0.90;;;8.90;99.90;;;;;;5003968;28;20707;-76
2021/05/07 07:54:42;;;;;;;0.80;0.80;;;8.90;99.90;;;;;;5005733;28;20191;-75
2021/05/07 07:57:09;;;;;;;0.80;0.80;;;9.20;99.90;;;;;;4997542;28;20610;-75
2021/05/07 07:59:36;;;;;;;0.90;0.90;;;9.40;99.90;;;;;;4995030;28;20219;-75
2021/05/07 08:02:03;;;;;;;1.00;1.00;;;9.50;99.90;;;;;;4996817;28;20259;-74
2021/05/07 08:04:31;;;;;;;0.90;0.90;;;9.20;99.90;;;;;;4994672;28;20215;-75
2021/05/07 08:06:57;;;;;;;0.98;0.98;;;9.40;99.90;;;;;;4995219;28;20208;-74
2021/05/07 08:09:25;;;;;;;0.90;0.90;;;9.30;99.90;;;;;;4994661;28;20200;-75
2021/05/07 08:11:53;;;;;;;0.88;0.88;;;9.60;99.90;;;;;;4994754;28;20711;-75
2021/05/07 08:14:22;;;;;;;0.80;0.80;;;9.70;99.90;;;;;;4994828;28;20203;-74
2021/05/07 08:16:49;;;;;;;0.80;0.80;;;9.50;99.90;;;;;;4995016;28;20207;-75
2021/05/07 08:19:16;;;;;;;0.90;0.90;;;9.30;99.90;;;;;;4995098;28;20724;-75
2021/05/07 08:21:43;;;;;;;0.90;0.90;;;9.40;99.90;;;;;;5001851;28;20219;-74
2021/05/07 08:24:11;;;;;;;0.87;0.87;;;9.50;99.90;;;;;;5010990;28;20199;-71
2021/05/07 08:26:39;;;;;;;0.90;0.90;;;9.40;99.90;;;;;;5013938;28;20203;-74
2021/05/07 08:29:06;;;;;;;0.93;0.93;;;9.40;99.90;;;;;;5014057;28;20204;-74
2021/05/07 08:31:33;;;;;;;1.00;1.00;;;9.20;99.90;;;;;;5014003;28;20231;-74
2021/05/07 08:34:00;;;;;;;1.00;1.00;;;9.50;99.90;;;;;;5013713;28;20226;-74
2021/05/07 08:36:28;;;;;;;0.85;0.85;;;9.50;99.90;;;;;;5014037;28;20665;-74
2021/05/07 08:38:55;;;;;;;0.90;0.90;;;9.50;99.90;;;;;;5013737;28;20660;-74
2021/05/07 08:41:22;;;;;;;0.80;0.80;;;9.40;99.90;;;;;;5014364;28;20223;-73
2021/05/07 08:43:52;;;;;;;0.90;0.90;;;9.60;99.90;;;;;;5013876;28;20254;-74
2021/05/07 08:46:20;;;;;;;0.90;0.90;;;9.70;99.90;;;;;;5013922;28;20203;-75
2021/05/07 08:48:47;;;;;;;0.80;0.80;;;9.60;99.90;;;;;;5016328;28;20294;-74
2021/05/07 08:51:14;;;;;;;0.85;0.85;;;9.80;99.90;;;;;;5006454;28;20894;-75
2021/05/07 08:53:42;;;;;;;0.80;0.80;;;10.10;99.90;;;;;;4994161;28;20208;-75
2021/05/07 08:56:29;;;;;;;0.90;0.90;;;10.10;99.90;;;;;;4994237;28;20216;-76
2021/05/07 08:58:56;;;;;;;0.90;0.90;;;10.20;99.90;;;;;;4994881;28;20200;-76
2021/05/07 09:01:23;;;;;;;0.88;0.88;;;10.30;99.90;;;;;;4996319;28;20216;-75
2021/05/07 09:03:50;;;;;;;0.65;0.65;;;10.30;99.90;;;;;;5002026;28;20231;-75
2021/05/07 09:06:18;;;;;;;0.80;0.80;;;10.00;99.90;;;;;;5007473;28;20601;-76
2021/05/07 09:08:46;;;;;;;0.90;0.90;;;10.10;99.90;;;;;;5004310;28;20251;-75
2021/05/07 09:11:13;;;;;;;0.90;0.90;;;9.90;99.90;;;;;;5003436;28;20219;-75
2021/05/07 09:13:40;;;;;;;0.93;0.93;;;10.10;99.90;;;;;;5004625;28;20590;-75
2021/05/07 09:16:09;;;;;;;0.70;0.70;;;10.40;99.90;;;;;;5008453;28;20200;-75
2021/05/07 09:18:42;;;;;;;0.70;0.70;;;10.40;99.90;;;;;;4993626;28;20561;-75
2021/05/07 09:21:10;;;;;;;0.80;0.80;;;10.80;99.90;;;;;;4993419;28;20259;-75
2021/05/07 09:23:41;;;;;;;0.80;0.80;;;10.50;99.90;;;;;;4993455;28;20200;-74
2021/05/07 09:26:08;;;;;;;0.80;0.80;;;10.50;99.90;;;;;;4996200;28;20196;-74
2021/05/07 09:28:35;;;;;;;0.82;0.82;;;10.30;99.90;;;;;;4995211;28;20192;-74
2021/05/07 09:31:11;;;;;;;0.80;0.80;;;10.40;99.90;;;;;;4996306;28;20278;-75
2021/05/07 09:33:41;;;;;;;0.80;0.80;;;10.20;99.90;;;;;;4994963;28;20258;-75
2021/05/07 09:36:09;;;;;;;0.90;0.90;;;9.90;99.90;;;;;;5003449;28;20210;-74
2021/05/07 09:38:36;;;;;;;0.90;0.90;;;9.90;99.90;;;;;;5010728;28;20203;-74
2021/05/07 09:41:04;;;;;;;0.80;0.80;;;9.80;99.90;;;;;;5010785;28;20231;-74
2021/05/07 09:43:31;;;;;;;0.70;0.70;;;9.50;99.90;;;;;;5010875;28;20930;-74
2021/05/07 09:45:58;;;;;;;0.80;0.80;;;9.60;99.90;;;;;;5010995;28;20293;-74
2021/05/07 09:48:27;;;;;;;0.70;0.70;;;9.60;99.90;;;;;;5011071;28;20208;-74
2021/05/07 09:50:57;;;;;;;0.90;0.90;;;9.40;99.90;;;;;;5010785;28;20234;-74
2021/05/07 09:53:25;;;;;;;0.88;0.88;;;9.30;99.90;;;;;;5011903;28;20253;-74
2021/05/07 09:55:56;;;;;;;1.00;1.00;;;9.30;99.90;;;;;;5012740;28;20610;-75
2021/05/07 09:58:23;;;;;;;0.90;0.90;;;9.40;99.90;;;;;;5012790;28;20203;-73
2021/05/07 10:00:50;;;;;;;0.70;0.70;;;9.40;99.90;;;;;;5002675;28;20281;-74
2021/05/07 10:03:17;;;;;;;0.80;0.80;;;9.50;99.90;;;;;;4992901;28;20208;-73
2021/05/07 10:05:45;;;;;;;0.90;0.90;;;9.80;99.90;;;;;;4992660;28;20656;-74
2021/05/07 10:08:11;;;;;;;0.80;0.80;;;9.90;99.90;;;;;;4992759;28;20231;-74
2021/05/07 10:10:42;;;;;;;0.80;0.80;;;9.90;99.90;;;;;;4992585;28;20267;-75
2021/05/07 10:13:13;;;;;;;0.90;0.90;;;9.80;99.90;;;;;;4992935;28;20230;-74
2021/05/07 10:15:41;;;;;;;1.00;1.00;;;9.90;99.90;;;;;;4992736;28;20203;-73
2021/05/07 10:18:09;;;;;;;0.80;0.80;;;9.80;99.90;;;;;;4992722;28;20208;-75
2021/05/07 10:20:38;;;;;;;0.80;0.80;;;9.70;99.90;;;;;;4995252;28;20222;-75
2021/05/07 10:23:16;;;;;;;0.80;0.80;;;9.80;99.90;;;;;;5003253;28;20309;-75
2021/05/07 10:25:56;;;;;;;1.00;1.00;;;10.00;99.90;;;;;;5002892;28;20230;-76
2021/05/07 10:28:24;;;;;;;0.90;0.90;;;9.90;99.90;;;;;;5015923;23;20235;-74
2021/05/07 10:31:01;;;;;;;0.80;0.80;;;9.70;99.90;;;;;;4984481;28;20341;-76
2021/05/07 10:33:28;;;;;;;0.90;0.90;;;9.70;99.90;;;;;;4983820;28;20210;-75
2021/05/07 10:35:56;;;;;;;0.70;0.70;;;9.30;99.90;;;;;;4979850;28;20265;-76
2021/05/07 10:38:26;;;;;;;1.00;1.00;;;9.50;99.90;;;;;;4974729;28;20226;-75
2021/05/07 10:41:05;;;;;;;1.00;1.00;;;9.40;99.90;;;;;;4962827;28;20693;-75
2021/05/07 10:43:37;;;;;;;0.90;0.90;;;9.40;99.90;;;;;;4962552;28;20728;-75
2021/05/07 10:46:04;;;;;;;0.90;0.90;;;9.40;99.90;;;;;;4961077;28;20201;-75
2021/05/07 10:48:31;;;;;;;0.80;0.80;;;9.60;99.90;;;;;;4960965;28;20225;-75
2021/05/07 10:51:03;;;;;;;0.90;0.90;;;9.60;99.90;;;;;;4961099;28;20670;-74
2021/05/07 10:53:33;;;;;;;0.90;0.90;;;9.40;99.90;;;;;;4971136;28;20616;-75
2021/05/07 10:56:15;;;;;;;0.90;0.90;;;9.30;99.90;;;;;;4967494;28;20204;-75
2021/05/07 10:58:42;;;;;;;0.80;0.80;;;9.40;99.90;;;;;;4961340;28;20231;-75
2021/05/07 11:01:21;;;;;;;0.80;0.80;;;9.30;99.90;;;;;;4972690;28;20204;-76
2021/05/07 11:04:03;;;;;;;0.90;0.90;;;9.30;99.90;;;;;;4966565;28;20197;-75
2021/05/07 11:06:32;;;;;;;0.90;0.90;;;9.30;99.90;;;;;;4965963;28;20205;-77
2021/05/07 11:09:20;;;;;;;1.00;1.00;;;9.30;99.90;;;;;;4963257;28;20217;-75
2021/05/07 11:11:49;;;;;;;0.80;0.80;;;9.10;99.90;;;;;;4970009;28;20367;-76
2021/05/07 11:14:17;;;;;;;0.90;0.90;;;9.20;99.90;;;;;;4967864;28;20243;-75
2021/05/07 11:16:45;;;;;;;1.00;1.00;;;9.20;99.90;;;;;;4957173;28;20209;-73
2021/05/07 11:19:25;;;;;;;0.80;0.80;;;9.30;99.90;;;;;;4957507;28;20367;-74
2021/05/07 11:21:55;;;;;;;0.80;0.80;;;9.30;99.90;;;;;;4957536;28;20240;-75
2021/05/07 11:24:23;;;;;;;0.80;0.80;;;9.60;99.90;;;;;;4956960;28;20205;-75
2021/05/07 11:26:51;;;;;;;0.73;0.73;;;9.90;99.90;;;;;;4956923;28;20671;-75
2021/05/07 11:29:32;;;;;;;0.88;0.88;;;10.10;99.90;;;;;;4956559;28;20233;-75
2021/05/07 11:32:13;;;;;;;0.90;0.90;;;10.20;99.90;;;;;;4957096;28;20303;-74
2021/05/07 11:34:41;;;;;;;1.00;1.00;;;9.80;99.90;;;;;;4956816;28;20209;-74
2021/05/07 11:37:09;;;;;;;0.70;0.70;;;9.60;99.90;;;;;;4957137;28;20609;-74
2021/05/07 11:39:37;;;;;;;0.60;0.60;;;9.60;99.90;;;;;;4956862;28;20213;-75
2021/05/07 11:42:04;;;;;;;0.80;0.80;;;9.60;99.90;;;;;;4956681;28;20611;-75
2021/05/07 11:44:31;;;;;;;0.80;0.80;;;9.70;99.90;;;;;;4956945;28;20205;-74
2021/05/07 11:47:05;;;;;;;0.70;0.70;;;10.00;99.90;;;;;;4956785;28;20217;-75
2021/05/07 11:49:35;;;;;;;0.95;0.95;;;10.00;99.90;;;;;;4956793;28;20214;-75
2021/05/07 11:52:03;;;;;;;0.85;0.85;;;10.10;99.90;;;;;;4956571;28;20225;-74
2021/05/07 11:54:45;;;;;;;0.70;0.70;;;10.10;99.90;;;;;;4956346;28;20213;-75
2021/05/07 11:57:12;;;;;;;0.80;0.80;;;10.00;99.90;;;;;;4956319;28;20685;-75
2021/05/07 11:59:46;;;;;;;0.80;0.80;;;10.10;99.90;;;;;;4956258;28;20216;-75
2021/05/07 12:02:19;;;;;;;0.90;0.90;;;10.20;99.90;;;;;;4955475;28;20217;-76
2021/05/07 12:04:47;;;;;;;0.70;0.70;;;10.00;99.80;;;;;;4956137;28;20201;-75
2021/05/07 12:07:23;;;;;;;0.80;0.80;;;10.50;99.90;;;;;;4956119;28;20201;-75
2021/05/07 12:09:52;;;;;;;0.70;0.70;;;10.40;99.40;;;;;;4956346;28;20296;-75
2021/05/07 12:12:19;;;;;;;0.85;0.85;;;10.70;99.20;;;;;;4956169;28;20278;-76
2021/05/07 12:15:04;;;;;;;0.93;0.93;;;10.70;97.90;;;;;;4956264;28;20225;-76
2021/05/07 12:17:40;;;;;;;0.80;0.80;;;10.90;97.80;;;;;;4956375;28;20636;-75
2021/05/07 12:20:09;;;;;;;0.70;0.70;;;11.10;96.70;;;;;;4963069;28;20201;-75
2021/05/07 12:22:37;;;;;;;0.80;0.80;;;11.10;96.10;;;;;;4963732;28;20189;-75
2021/05/07 12:25:10;;;;;;;0.88;0.88;;;11.00;96.20;;;;;;4966528;28;20550;-75
2021/05/07 12:27:41;;;;;;;0.80;0.80;;;11.10;94.40;;;;;;4975085;28;20239;-75
2021/05/07 12:30:20;;;;;;;0.70;0.70;;;11.30;93.70;;;;;;4974799;28;20209;-74
2021/05/07 12:32:58;;;;;;;0.80;0.80;;;11.30;93.60;;;;;;4975196;28;20500;-75
2021/05/07 12:35:36;;;;;;;0.70;0.70;;;11.40;92.90;;;;;;4968843;28;20205;-75
2021/05/07 12:38:17;;;;;;;0.73;0.73;;;11.40;93.70;;;;;;4964967;28;20304;-75
2021/05/07 12:40:46;;;;;;;0.70;0.70;;;11.00;92.70;;;;;;4965378;28;20620;-75
2021/05/07 12:43:12;;;;;;;0.73;0.73;;;10.90;93.30;;;;;;4964027;28;20620;-75
2021/05/07 12:45:39;;;;;;;0.70;0.70;;;10.90;94.50;;;;;;4964960;28;20207;-75
2021/05/07 12:48:07;;;;;;;0.90;0.90;;;10.90;95.10;;;;;;4962801;28;20212;-75
2021/05/07 12:50:33;;;;;;;0.80;0.80;;;11.00;94.00;;;;;;4965396;28;20193;-75
2021/05/07 12:53:00;;;;;;;0.80;0.80;;;11.40;94.30;;;;;;4964194;28;20559;-75
2021/05/07 12:55:27;;;;;;;0.80;0.80;;;11.60;94.20;;;;;;4966231;28;20254;-75
2021/05/07 12:57:55;;;;;;;0.70;0.70;;;11.30;93.60;;;;;;4962724;28;20229;-75
2021/05/07 13:00:22;;;;;;;0.80;0.80;;;11.50;92.80;;;;;;4965311;28;20197;-75
2021/05/07 13:02:49;;;;;;;0.60;0.60;;;11.20;93.30;;;;;;4964267;28;20193;-75
2021/05/07 13:05:16;;;;;;;0.80;0.80;;;11.10;94.50;;;;;;4965957;28;20578;-75
2021/05/07 13:07:43;;;;;;;0.80;0.80;;;10.80;96.10;;;;;;4963029;28;20225;-75
2021/05/07 13:10:11;;;;;;;0.90;0.90;;;10.10;99.90;;;;;;4964460;28;20255;-76
2021/05/07 13:12:38;;;;;;;0.90;0.90;;;9.00;99.90;;;;;;4959685;28;20589;-76
2021/05/07 13:15:07;;;;;;;1.00;1.00;;;8.40;99.90;;;;;;4965135;28;20205;-78
2021/05/07 13:17:34;;;;;;;0.90;0.90;;;8.20;99.90;;;;;;4964265;28;20221;-77
2021/05/07 13:20:02;;;;;;;0.90;0.90;;;8.40;99.90;;;;;;4969659;28;20197;-77
2021/05/07 13:22:29;;;;;;;1.00;1.00;;;8.70;99.90;;;;;;4967460;28;20208;-76
2021/05/07 13:24:55;;;;;;;1.00;1.00;;;9.00;99.90;;;;;;4970748;28;20246;-76
2021/05/07 13:27:22;;;;;;;1.00;1.00;;;9.40;99.90;;;;;;4973643;28;20232;-75
2021/05/07 13:29:50;;;;;;;0.80;0.80;;;9.60;99.90;;;;;;4968386;28;20189;-76
2021/05/07 13:32:19;;;;;;;0.80;0.80;;;10.00;99.90;;;;;;4973421;28;20274;-76
2021/05/07 13:34:48;;;;;;;0.80;0.80;;;10.40;99.90;;;;;;4962622;28;20228;-76
2021/05/07 13:37:15;;;;;;;0.70;0.70;;;10.80;99.90;;;;;;4954728;28;20209;-76
2021/05/07 13:39:44;;;;;;;0.80;0.80;;;11.00;99.90;;;;;;4954737;28;20299;-76
2021/05/07 13:42:11;;;;;;;0.80;0.80;;;11.10;99.90;;;;;;4954546;28;20248;-76
2021/05/07 13:44:38;;;;;;;0.70;0.70;;;11.20;99.90;;;;;;4954436;28;20245;-76
2021/05/07 13:47:05;;;;;;;0.70;0.70;;;11.50;99.90;;;;;;4954230;28;20260;-76
2021/05/07 13:49:33;;;;;;;0.80;0.80;;;11.40;99.90;;;;;;4954472;28;20216;-76
2021/05/07 13:52:01;;;;;;;0.70;0.70;;;11.20;99.90;;;;;;4954145;28;20225;-77
2021/05/07 13:54:28;;;;;;;0.70;0.70;;;11.10;99.90;;;;;;4956766;28;20671;-77
2021/05/07 13:56:55;;;;;;;0.70;0.70;;;10.80;99.90;;;;;;4956364;28;20280;-78
2021/05/07 13:59:22;;;;;;;0.80;0.80;;;10.60;99.90;;;;;;4961054;29;20205;-78
2021/05/07 14:01:50;;;;;;;0.90;0.90;;;10.00;99.90;;;;;;4961246;28;20655;-80
2021/05/07 14:04:18;;;;;;;0.80;0.80;;;9.20;99.90;;;;;;4962431;28;20201;-78
2021/05/07 14:06:47;;;;;;;0.95;0.95;;;8.70;99.90;;;;;;4962953;28;20201;-78
2021/05/07 14:09:14;;;;;;;1.00;1.00;;;8.80;99.90;;;;;;4969594;28;20217;-78
2021/05/07 14:11:45;;;;;;;0.90;0.90;;;9.20;99.90;;;;;;4962664;28;20197;-76
2021/05/07 14:14:12;;;;;;;0.77;0.77;;;9.50;99.90;;;;;;4959582;28;20193;-77
2021/05/07 14:16:40;;;;;;;0.80;0.80;;;9.80;99.90;;;;;;4967422;28;20694;-77
2021/05/07 14:19:08;;;;;;;0.80;0.80;;;10.20;99.90;;;;;;4970357;28;20271;-77
2021/05/07 14:21:36;;;;;;;0.70;0.70;;;10.50;99.90;;;;;;4964636;28;20249;-77
2021/05/07 14:24:05;;;;;;;0.80;0.80;;;10.70;99.90;;;;;;4954277;28;20264;-76
2021/05/07 14:26:32;;;;;;;0.70;0.70;;;12.40;99.90;;;;;;4955311;28;20741;-79
2021/05/07 14:28:59;;;;;;;0.80;0.80;;;11.30;98.80;;;;;;4957578;28;20284;-78
2021/05/07 14:31:26;;;;;;;0.75;0.75;;;11.30;93.40;;;;;;4967833;28;20247;-78
2021/05/07 14:33:53;;;;;;;0.77;0.77;;;11.40;90.20;;;;;;4958619;28;20291;-78
2021/05/07 14:36:20;;;;;;;0.60;0.60;;;11.70;87.50;;;;;;4968404;28;20196;-78
2021/05/07 14:38:47;;;;;;;0.80;0.80;;;11.80;89.90;;;;;;4972981;28;20236;-78
2021/05/07 14:41:15;;;;;;;0.73;0.73;;;12.00;82.90;;;;;;4968958;28;20209;-79
2021/05/07 14:43:42;;;;;;;0.80;0.80;;;12.00;78.70;;;;;;4967054;28;20309;-78
2021/05/07 14:46:09;;;;;;;0.70;0.70;;;12.10;77.00;;;;;;4975372;28;20201;-79
2021/05/07 14:48:36;;;;;;;0.70;0.70;;;12.10;73.80;;;;;;4964981;28;20631;-79
2021/05/07 14:51:03;;;;;;;0.60;0.60;;;12.00;75.00;;;;;;4964521;28;20239;-79
2021/05/07 14:53:31;;;;;;;0.70;0.70;;;11.80;73.50;;;;;;4965715;28;20224;-78
2021/05/07 14:55:59;;;;;;;0.77;0.77;;;11.90;75.30;;;;;;4963769;28;20197;-79
2021/05/07 14:58:26;;;;;;;0.70;0.70;;;11.90;75.60;;;;;;4962683;28;20284;-78
2021/05/07 15:00:53;;;;;;;0.70;0.70;;;12.00;77.60;;;;;;4971923;28;20713;-77
2021/05/07 15:03:21;;;;;;;0.70;0.70;;;12.20;75.90;;;;;;4969284;28;20209;-78
2021/05/07 15:05:51;;;;;;;0.70;0.70;;;12.20;74.30;;;;;;4966569;28;20221;-78
2021/05/07 15:08:20;;;;;;;0.80;0.80;;;12.20;73.30;;;;;;4974633;28;20275;-77
2021/05/07 15:10:48;;;;;;;0.70;0.70;;;12.20;73.30;;;;;;4963810;28;20197;-78
2021/05/07 15:13:15;;;;;;;0.60;0.60;;;12.30;71.80;;;;;;4968204;28;20224;-78
2021/05/07 15:15:43;;;;;;;0.70;0.70;;;12.40;71.70;;;;;;4968365;28;20604;-77
2021/05/07 15:18:10;;;;;;;0.70;0.70;;;12.40;71.60;;;;;;4965328;28;20228;-78
2021/05/07 15:20:37;;;;;;;0.60;0.60;;;12.50;70.80;;;;;;4981364;28;20192;-79
2021/05/07 15:23:05;;;;;;;0.70;0.70;;;12.30;71.10;;;;;;4966441;28;20193;-77
2021/05/07 15:25:32;;;;;;;0.70;0.70;;;12.30;68.90;;;;;;4954285;28;20663;-77
2021/05/07 15:27:59;;;;;;;0.70;0.70;;;12.50;68.00;;;;;;4962588;28;20233;-77
2021/05/07 15:30:26;;;;;;;0.70;0.70;;;12.50;66.60;;;;;;4964095;28;20205;-77
2021/05/07 15:32:53;;;;;;;0.68;0.68;;;12.50;66.50;;;;;;4973275;28;20780;-78
2021/05/07 15:35:20;;;;;;;0.60;0.60;;;12.40;66.90;;;;;;4973652;28;20213;-78
2021/05/07 15:37:48;;;;;;;0.70;0.70;;;12.50;67.00;;;;;;4963913;28;20228;-77
2021/05/07 15:40:17;;;;;;;0.70;0.70;;;12.60;67.30;;;;;;4970096;28;20215;-78
2021/05/07 15:42:52;;;;;;;0.70;0.70;;;12.70;65.70;;;;;;4956966;28;20232;-77
2021/05/07 15:45:19;;;;;;;0.60;0.60;;;12.40;67.40;;;;;;4972322;28;20211;-77
2021/05/07 15:47:46;;;;;;;0.68;0.68;;;12.40;68.80;;;;;;4966004;28;20225;-78
2021/05/07 15:50:14;;;;;;;0.60;0.60;;;12.50;68.50;;;;;;4980811;28;20215;-78
2021/05/07 15:52:41;;;;;;;0.60;0.60;;;12.40;68.80;;;;;;4978779;28;20224;-78
2021/05/07 15:55:10;;;;;;;0.65;0.65;;;12.80;68.50;;;;;;4968691;28;20549;-77
2021/05/07 15:57:37;;;;;;;0.70;0.70;;;13.20;70.00;;;;;;4977409;28;20221;-77
2021/05/07 16:00:06;;;;;;;0.70;0.70;;;13.10;69.90;;;;;;4974947;28;20253;-78
2021/05/07 16:02:35;;;;;;;0.70;0.70;;;13.30;70.80;;;;;;4983012;28;20215;-79
2021/05/07 16:05:03;;;;;;;0.70;0.70;;;13.30;72.40;;;;;;4980302;28;20208;-77
2021/05/07 16:07:31;;;;;;;0.70;0.70;;;13.00;74.50;;;;;;4976869;28;20617;-77
2021/05/07 16:09:58;;;;;;;0.60;0.60;;;13.90;87.80;;;;;;4975540;28;20204;-76
2021/05/07 16:12:26;;;;;;;0.60;0.60;;;14.00;72.20;;;;;;4969465;28;20229;-77
2021/05/07 16:14:54;;;;;;;0.70;0.70;;;13.80;73.00;;;;;;4972632;28;20209;-76
2021/05/07 16:17:25;;;;;;;0.70;0.70;;;13.20;74.30;;;;;;4960634;28;20231;-78
2021/05/07 16:19:52;;;;;;;0.60;0.60;;;13.10;74.80;;;;;;4975497;28;20204;-81
2021/05/07 16:22:19;;;;;;;0.70;0.70;;;13.00;74.80;;;;;;4975732;28;20201;-78
2021/05/07 16:24:49;;;;;;;0.68;0.68;;;13.20;74.10;;;;;;4976495;28;20205;-78
2021/05/07 16:27:16;;;;;;;0.80;0.80;;;13.30;88.20;;;;;;4976620;28;20213;-79
2021/05/07 16:29:43;;;;;;;0.60;0.60;;;13.20;73.20;;;;;;4977463;28;20240;-79
2021/05/07 16:32:15;;;;;;;0.70;0.70;;;13.30;73.20;;;;;;4970506;28;20205;-79
2021/05/07 16:34:42;;;;;;;0.50;0.50;;;13.20;75.00;;;;;;4957058;28;20221;-79
2021/05/07 16:37:10;;;;;;;0.60;0.60;;;13.60;86.00;;;;;;4961702;28;20623;-80
2021/05/07 16:39:37;;;;;;;0.50;0.50;;;13.60;71.50;;;;;;4959055;28;20209;-78
2021/05/07 16:42:05;;;;;;;0.60;0.60;;;13.50;69.70;;;;;;4955564;28;20747;-75
2021/05/07 16:44:32;;;;;;;0.60;0.60;;;13.70;70.30;;;;;;4954749;28;20213;-76
2021/05/07 16:46:59;;;;;;;0.50;0.50;;;13.70;82.10;;;;;;4970309;28;20548;-78
2021/05/07 16:49:26;;;;;;;0.70;0.70;;;14.00;67.80;;;;;;4979702;28;20201;-78
2021/05/07 16:51:53;;;;;;;0.60;0.60;;;13.60;67.40;;;;;;4964181;28;20268;-78
2021/05/07 16:54:20;;;;;;;0.60;0.60;;;13.40;67.20;;;;;;4963923;28;20668;-80
2021/05/07 16:56:46;;;;;;;0.60;0.60;;;13.40;68.00;;;;;;4974314;28;20713;-80
2021/05/07 16:59:14;;;;;;;0.52;0.52;;;13.20;68.20;;;;;;4979694;28;20217;-78
2021/05/07 17:01:41;;;;;;;0.75;0.75;;;12.80;67.00;;;;;;4967926;28;20192;-79
2021/05/07 17:04:08;;;;;;;0.50;0.50;;;13.00;67.10;;;;;;4965762;28;20204;-80
2021/05/07 17:06:35;;;;;;;0.60;0.60;;;13.20;67.30;;;;;;4975037;28;20197;-80
2021/05/07 17:09:03;;;;;;;0.50;0.50;;;13.30;67.40;;;;;;4983928;28;20217;-79
2021/05/07 17:11:31;;;;;;;0.70;0.70;;;13.20;66.50;;;;;;4996353;28;20208;-79